Airfield :
LOGIN :

Register | Disclaimer

   EN    FR    IT 

 










Legend :    VFR   Marginal VFR   IFR   Intensive IFR   Very Intensive IFR
Visi :
Ceiling :
>= 8 km
>= 3000ft
5 to 8 km
1000 to 3000 ft
1500m to 5 km
500 to 1000 ft
800 to 1500m
200 to 500 ft
< 800m
< 200 ft
Symbols :   Thunderstorms  Fog  Heavy snow  Heavy precipitations  Wind > 20 kt
SIGMETs :     Misc.  Thunderstorms  Icing  Turbulence  Mountain Waves  Volcanic Ashes






- Airport Elevation : 512 ft
- IATA code : URO


LFOP - Rouen Vallée de Seine

CURRENT METAR :
  • 171300Z AUTO 34004KT 310V050 9999 FEW012 OVC039 07/04 Q1009 NOSIG

EXPIRED METARs :
  • 171230Z AUTO 27003KT 9999 FEW010 SCT016 OVC038 07/05 Q1009 NOSIG
  • 171200Z AUTO 29003KT 260V320 9999 FEW006 OVC038 06/05 Q1009 NOSIG
  • 171130Z AUTO 30003KT 260V320 9999 FEW005 OVC037 06/05 Q1009 NOSIG
  • 171100Z AUTO 00000KT 9999 SCT004 OVC035 05/05 Q1010 NOSIG
  • 171030Z AUTO 00000KT 9999 OVC034 05/05 Q1010 NOSIG

TAF TAF LFOP
Valid from the 17 at 12:00 until the 18 at 12:00 UTC


171100Z 1712/1812 VRB03KT 9999 BKN030
BECMG 1720/1723 0300 FG VV///
BECMG 1801/1803 8000 NSW BKN025
TEMPO 1803/1810 3000 BR
TEMPO 1810/1812 3000 RA BKN008 BKN025
ATIS : +33 2 35 80 80 34
Met : +33 2 32 86 52 80



MET'MAP, your aeronautical weather chart ! - Copyright ORBIFLY December 2007 - Disclaimer

ORBIFLY MET'MAP TEAM :

Programming & Development : Alexandra Zaïnal
Concept & Development : Baudouin d'Aumeries
Co-Development & Prog : Marc-Olivier Méhu
Technical & hardware support : Manuel Goepfert

Contact : metmap@orbifly.com




SOURCES & CREDITS :

   NOAA